Deer Park, WA

11:09 PM PST on February 06, 2016 (GMT -0800)
Deer Park | | Change Station
CLOSE
Current Station
Airport
Location: Deer Park,
Elevation: 2205 ft
Nearby Weather Stations

Elev 2205 ft 47.97 °N, 117.42 °W | Updated 16 minutes ago

Light Freezing Fog
Freezing Fog
22 °F
Feels Like 17 °F
N
4
Wind Variable Wind from NE

Today
High -- | Low -- °F
--% Chance of Precip.
Yesterday
High -- | Low -- °F
Precip. -- in
Pressure 30.52 in
Visibility 0.5 miles
Clouds
Windchill 17 °F
Dew Point 21 °F
Humidity 96%
Rainfall 0.00 in
Snow Depth Not available.
7:10 AM 4:57 PM
Waning Crescent, 2% visible
METAR KDEW 070653Z AUTO 05003KT 1/2SM FZFG VV002 M06/M06 A3044 RMK AO2 SLP335 I1001 T10561061 TSNO
Pressure 30.52 in
Visibility 0.5 miles
Clouds
Windchill 17 °F
Dew Point 21 °F
Humidity 96%
Rainfall 0.00 in
Snow Depth Not available.
7:10 AM 4:57 PM
Waning Crescent, 2% visible
METAR KDEW 070653Z AUTO 05003KT 1/2SM FZFG VV002 M06/M06 A3044 RMK AO2 SLP335 I1001 T10561061 TSNO

10-Day Weather Forecast

Almanac

Astronomy

Feb. 06, 2016 Rise Set
Actual Time
Civil Twilight
Nautical Twilight
Astronomical Twilight
Moon
Length of Visible Light
Length of Day
Tomorrow will be .
, % of the Moon is Illuminated

Today's Extremes

State Highs State Lows

Community

WunderPhotos

Upload Photos

1,891,174 photos uploaded!

WunderBlog® & News

Nearby

Air Quality

  Air Quality AQ Index Pollutant
Not available.

Snow Depth

Station Depth Elevation

Earthquake Activity

City Distance Mag. Time & Date
Minimum magnitude displayed is 2.5.

Coastal Water Temperatures

Place Temperature

Stations

Nearby Weather Stations

Station Location Temp. Windchill Dew Point Humidity Wind Precip. Elev Updated Type
                   

Watches & Warnings

There are currently no watches in effect.